createdAt,value
2022-09-09T00:05:10.373Z,1007.58
2022-09-09T00:20:11.108Z,1007.55
2022-09-09T00:35:11.801Z,1007.51
2022-09-09T00:50:13.665Z,1007.46
2022-09-09T01:05:14.860Z,1007.43
2022-09-09T01:20:16.047Z,1007.56
2022-09-09T01:35:16.735Z,1007.56
2022-09-09T01:50:17.431Z,1007.49
2022-09-09T02:05:18.679Z,1007.61
2022-09-09T02:20:19.940Z,1007.54
2022-09-09T02:35:21.089Z,1007.66
2022-09-09T02:50:22.244Z,1007.64
2022-09-09T03:05:23.359Z,1007.68
2022-09-09T03:20:24.521Z,1007.73
2022-09-09T03:35:25.874Z,1007.83
2022-09-09T03:50:26.543Z,1007.93
2022-09-09T04:05:27.212Z,1008.01
2022-09-09T04:20:28.386Z,1007.92
2022-09-09T04:35:29.583Z,1007.91
2022-09-09T04:50:30.749Z,1008.05
2022-09-09T05:05:31.892Z,1008.28
2022-09-09T05:20:32.995Z,1008.23
2022-09-09T05:35:34.776Z,1008.32
2022-09-09T05:50:35.741Z,1008.24
2022-09-09T06:05:36.893Z,1008.32
2022-09-09T06:20:37.999Z,1008.52
2022-09-09T06:35:39.150Z,1008.51
2022-09-09T06:50:40.130Z,1008.68
2022-09-09T07:05:41.267Z,1008.71
2022-09-09T07:20:42.374Z,1008.68
2022-09-09T07:35:44.699Z,1008.77
2022-09-09T07:50:46.067Z,1008.71
2022-09-09T08:05:46.483Z,1008.96
2022-09-09T08:20:48.659Z,1008.90
2022-09-09T08:35:49.621Z,1009.01
2022-09-09T08:50:50.299Z,1009.01
2022-09-09T09:05:51.412Z,1008.99
2022-09-09T09:20:53.635Z,1009.00
2022-09-09T09:35:53.758Z,1009.13
2022-09-09T09:50:53.790Z,1009.14
2022-09-09T10:05:54.005Z,1009.13
2022-09-09T10:20:55.013Z,1009.02
2022-09-09T10:35:55.261Z,1009.10
2022-09-09T10:51:00.929Z,1009.13
2022-09-09T11:06:01.631Z,1009.15
2022-09-09T11:21:02.597Z,1009.08
2022-09-09T11:36:07.212Z,1008.98
2022-09-09T11:51:11.036Z,1008.99
2022-09-09T12:06:12.666Z,1008.90
2022-09-09T12:21:12.784Z,1008.73
2022-09-09T12:36:12.863Z,1008.53
2022-09-09T12:51:12.980Z,1008.52
2022-09-09T13:06:13.028Z,1008.58
2022-09-09T13:21:13.101Z,1008.44
2022-09-09T13:36:13.198Z,1008.46
2022-09-09T13:51:13.539Z,1008.26
2022-09-09T14:06:14.393Z,1008.33
2022-09-09T14:21:14.506Z,1008.35
2022-09-09T14:36:16.984Z,1008.56
2022-09-09T14:51:18.579Z,1008.49
2022-09-09T15:06:18.623Z,1008.41
2022-09-09T15:21:19.230Z,1008.31
2022-09-09T15:36:19.542Z,1008.22
2022-09-09T15:51:41.326Z,1008.33
2022-09-09T16:06:26.748Z,1008.16
2022-09-09T16:21:28.314Z,1008.25
2022-09-09T16:36:29.381Z,1008.56
2022-09-09T16:51:29.469Z,1008.51
2022-09-09T17:06:29.095Z,1008.44
2022-09-09T17:21:30.159Z,1008.40
2022-09-09T17:36:30.286Z,1008.26
2022-09-09T17:51:30.882Z,1007.97
2022-09-09T18:06:31.020Z,1008.21
2022-09-09T18:21:31.571Z,1008.31
2022-09-09T18:36:32.211Z,1008.66
2022-09-09T18:51:33.362Z,1008.81
2022-09-09T19:06:34.383Z,1009.05
2022-09-09T19:21:34.462Z,1009.21
2022-09-09T19:36:34.593Z,1009.24
2022-09-09T19:51:34.747Z,1009.17
2022-09-09T20:06:34.853Z,1009.30
2022-09-09T20:21:35.198Z,1009.31
2022-09-09T20:36:36.088Z,1009.23
2022-09-09T20:51:36.255Z,1008.95
2022-09-09T21:06:37.196Z,1008.83
2022-09-09T21:21:37.453Z,1008.73
2022-09-09T21:36:37.565Z,1008.85
2022-09-09T21:51:37.690Z,1009.01
2022-09-09T22:06:37.818Z,1009.07
2022-09-09T22:21:37.922Z,1009.26
2022-09-09T22:36:38.503Z,1009.25
2022-09-09T22:51:39.091Z,1009.13
2022-09-09T23:06:40.540Z,1009.02
2022-09-09T23:21:40.805Z,1008.82
2022-09-09T23:36:42.175Z,1008.76
2022-09-09T23:51:43.073Z,1008.75
